createdAt,value
2018-03-08T00:01:13.249Z,5.40
2018-03-08T00:03:41.278Z,6.40
2018-03-08T00:06:09.331Z,5.45
2018-03-08T00:08:37.360Z,5.85
2018-03-08T00:11:05.828Z,5.20
2018-03-08T00:13:33.882Z,5.37
2018-03-08T00:16:01.932Z,4.60
2018-03-08T00:18:30.006Z,6.15
2018-03-08T00:20:58.067Z,5.70
2018-03-08T00:23:26.119Z,5.60
2018-03-08T00:25:54.166Z,6.70
2018-03-08T00:28:22.225Z,3.95
2018-03-08T00:30:50.315Z,5.18
2018-03-08T00:33:18.377Z,5.95
2018-03-08T00:35:46.423Z,3.87
2018-03-08T00:38:15.240Z,6.03
2018-03-08T00:40:43.295Z,6.40
2018-03-08T00:43:11.384Z,6.90
2018-03-08T00:45:39.438Z,6.00
2018-03-08T00:48:07.487Z,6.70
2018-03-08T00:50:35.521Z,9.15
2018-03-08T00:53:03.834Z,6.32
2018-03-08T00:55:31.968Z,6.12
2018-03-08T00:57:59.999Z,7.00
2018-03-08T01:00:28.047Z,7.57
2018-03-08T01:02:56.090Z,7.22
2018-03-08T01:05:24.152Z,7.62
2018-03-08T01:07:52.233Z,7.10
2018-03-08T01:10:20.285Z,5.68
2018-03-08T01:12:48.374Z,5.93
2018-03-08T01:15:16.485Z,7.03
2018-03-08T01:17:44.594Z,6.93
2018-03-08T01:20:15.465Z,9.15
2018-03-08T01:22:43.494Z,7.72
2018-03-08T01:25:11.632Z,8.38
2018-03-08T01:27:39.744Z,7.15
2018-03-08T01:30:07.816Z,8.05
2018-03-08T01:32:35.878Z,8.60
2018-03-08T01:35:03.948Z,10.75
2018-03-08T01:37:31.994Z,10.50
2018-03-08T01:40:00.056Z,8.93
2018-03-08T01:42:28.148Z,9.93
2018-03-08T01:44:56.185Z,9.65
2018-03-08T01:47:25.152Z,12.18
2018-03-08T01:49:53.244Z,11.50
2018-03-08T01:52:21.344Z,10.27
2018-03-08T01:54:49.399Z,12.13
2018-03-08T01:57:17.469Z,13.65
2018-03-08T01:59:45.513Z,13.73
2018-03-08T02:02:13.590Z,14.65
2018-03-08T02:04:41.623Z,15.68
2018-03-08T02:07:09.667Z,13.45
2018-03-08T02:09:37.704Z,14.55
2018-03-08T02:12:05.739Z,16.23
2018-03-08T02:14:33.827Z,15.05
2018-03-08T02:17:01.865Z,14.02
2018-03-08T02:19:29.899Z,14.20
2018-03-08T02:21:57.932Z,12.88
2018-03-08T02:24:26.095Z,14.00
2018-03-08T02:26:54.143Z,12.93
2018-03-08T02:29:22.183Z,15.23
2018-03-08T02:31:50.299Z,13.55
2018-03-08T02:34:18.341Z,11.85
2018-03-08T02:36:46.391Z,12.02
2018-03-08T02:39:14.429Z,12.05
2018-03-08T02:41:42.494Z,10.17
2018-03-08T02:44:10.548Z,10.30
2018-03-08T02:46:38.609Z,10.55
2018-03-08T02:49:06.648Z,8.23
2018-03-08T02:51:34.689Z,10.82
2018-03-08T02:54:02.762Z,8.80
2018-03-08T02:56:30.843Z,9.25
2018-03-08T02:58:58.886Z,8.35
2018-03-08T03:01:26.939Z,9.68
2018-03-08T03:03:54.989Z,7.62
2018-03-08T03:06:23.053Z,9.13
2018-03-08T03:08:51.114Z,8.18
2018-03-08T03:11:19.158Z,8.73
2018-03-08T03:13:47.210Z,10.17
2018-03-08T03:16:15.264Z,8.23
2018-03-08T03:18:43.301Z,7.28
2018-03-08T03:21:12.152Z,7.60
2018-03-08T03:23:40.201Z,6.53
2018-03-08T03:26:08.228Z,8.00
2018-03-08T03:28:36.549Z,6.85
2018-03-08T03:31:04.584Z,8.30
2018-03-08T03:33:32.644Z,6.70
2018-03-08T03:36:00.667Z,9.55
2018-03-08T03:38:28.709Z,7.63
2018-03-08T03:40:56.768Z,7.35
2018-03-08T03:43:24.784Z,7.20
2018-03-08T03:45:52.845Z,6.50
2018-03-08T03:48:21.052Z,5.82
2018-03-08T03:50:49.887Z,5.80
2018-03-08T03:53:17.944Z,5.43
2018-03-08T03:55:45.981Z,7.30
2018-03-08T03:58:14.064Z,5.30
2018-03-08T04:00:42.861Z,5.40
2018-03-08T04:03:10.905Z,6.10
2018-03-08T04:05:38.947Z,6.82
2018-03-08T04:08:06.975Z,7.15
2018-03-08T04:10:35.053Z,5.28
2018-03-08T04:13:03.852Z,6.10
2018-03-08T04:15:31.863Z,5.35
2018-03-08T04:18:00.122Z,5.53
2018-03-08T04:20:28.172Z,6.55
2018-03-08T04:22:56.233Z,5.07
2018-03-08T04:25:24.269Z,7.07
2018-03-08T04:27:52.343Z,5.23
2018-03-08T04:30:20.553Z,5.03
2018-03-08T04:32:48.683Z,4.95
2018-03-08T04:35:16.749Z,5.33
2018-03-08T04:37:44.798Z,5.53
2018-03-08T04:40:12.869Z,3.78
2018-03-08T04:42:40.918Z,5.37
2018-03-08T04:45:08.960Z,3.97
2018-03-08T04:47:38.530Z,5.53
2018-03-08T04:50:06.577Z,2.87
2018-03-08T04:52:34.636Z,2.12
2018-03-08T04:55:02.682Z,2.78
2018-03-08T04:57:30.742Z,4.82
2018-03-08T04:59:58.797Z,2.72
2018-03-08T05:02:26.865Z,5.43
2018-03-08T05:04:54.928Z,10.48
2018-03-08T05:07:22.974Z,5.40
2018-03-08T05:09:51.793Z,4.25
2018-03-08T05:12:19.832Z,5.18
2018-03-08T05:14:47.898Z,4.55
2018-03-08T05:17:16.008Z,4.72
2018-03-08T05:19:44.050Z,3.08
2018-03-08T05:22:13.010Z,5.20
2018-03-08T05:24:41.060Z,4.30
2018-03-08T05:27:09.098Z,4.00
2018-03-08T05:29:37.168Z,6.37
2018-03-08T05:32:05.207Z,2.95
2018-03-08T05:34:33.236Z,4.85
2018-03-08T05:37:01.284Z,6.20
2018-03-08T05:39:29.318Z,5.53
2018-03-08T05:41:57.368Z,3.00
2018-03-08T05:44:25.452Z,2.05
2018-03-08T05:46:53.507Z,5.28
2018-03-08T05:49:21.609Z,2.20
2018-03-08T05:51:49.658Z,3.50
2018-03-08T05:54:17.721Z,2.95
2018-03-08T05:56:45.801Z,7.35
2018-03-08T05:59:13.823Z,3.67
2018-03-08T06:01:41.951Z,2.62
2018-03-08T06:04:09.970Z,4.40
2018-03-08T06:06:38.028Z,3.15
2018-03-08T06:09:06.091Z,2.83
2018-03-08T06:11:34.117Z,3.47
2018-03-08T06:14:02.148Z,4.28
2018-03-08T06:16:30.199Z,2.58
2018-03-08T06:18:59.132Z,3.17
2018-03-08T06:21:27.219Z,3.95
2018-03-08T06:23:55.243Z,2.85
2018-03-08T06:26:23.263Z,2.75
2018-03-08T06:28:51.318Z,3.50
2018-03-08T06:31:19.775Z,3.15
2018-03-08T06:33:47.880Z,2.78
2018-03-08T06:36:15.898Z,3.40
2018-03-08T06:38:43.967Z,2.60
2018-03-08T06:41:11.997Z,2.87
2018-03-08T06:43:40.124Z,3.12
2018-03-08T06:46:08.201Z,3.10
2018-03-08T06:48:36.214Z,6.62
2018-03-08T06:51:04.274Z,2.80
2018-03-08T06:53:32.284Z,3.42
2018-03-08T06:56:00.316Z,3.25
2018-03-08T06:58:28.611Z,3.53
2018-03-08T07:00:56.663Z,6.87
2018-03-08T07:03:24.718Z,4.40
2018-03-08T07:05:52.806Z,4.53
2018-03-08T07:08:20.810Z,4.18
2018-03-08T07:10:48.902Z,6.20
2018-03-08T07:13:16.940Z,5.15
2018-03-08T07:15:45.033Z,3.40
2018-03-08T07:18:13.064Z,5.85
2018-03-08T07:20:41.902Z,3.47
2018-03-08T07:23:09.950Z,3.70
2018-03-08T07:25:37.996Z,7.82
2018-03-08T07:28:06.060Z,2.85
2018-03-08T07:30:34.101Z,5.10
2018-03-08T07:33:02.158Z,6.55
2018-03-08T07:35:30.285Z,5.40
2018-03-08T07:37:58.306Z,6.50
2018-03-08T07:40:26.342Z,7.25
2018-03-08T07:42:54.358Z,3.50
2018-03-08T07:45:22.426Z,5.95
2018-03-08T07:47:50.476Z,6.87
2018-03-08T07:50:18.533Z,5.72
2018-03-08T07:52:46.599Z,6.00
2018-03-08T07:55:14.642Z,6.10
2018-03-08T07:57:43.134Z,7.45
2018-03-08T08:00:11.149Z,5.55
2018-03-08T08:02:39.222Z,7.80
2018-03-08T08:05:07.254Z,10.80
2018-03-08T08:07:35.323Z,18.75
2018-03-08T08:10:04.123Z,35.80
2018-03-08T08:12:32.195Z,34.55
2018-03-08T08:15:00.266Z,36.85
2018-03-08T08:17:28.336Z,50.12
2018-03-08T08:19:56.423Z,53.13
2018-03-08T08:22:24.457Z,66.57
2018-03-08T08:24:52.494Z,61.05
2018-03-08T08:27:20.857Z,88.75
2018-03-08T08:29:48.930Z,67.82
2018-03-08T08:32:16.993Z,50.30
2018-03-08T08:34:45.047Z,50.20
2018-03-08T08:37:13.078Z,34.72
2018-03-08T08:39:41.154Z,33.22
2018-03-08T08:42:09.216Z,35.88
2018-03-08T08:44:37.256Z,41.80
2018-03-08T08:47:05.345Z,32.38
2018-03-08T08:49:34.154Z,25.33
2018-03-08T08:52:02.226Z,25.48
2018-03-08T08:54:30.349Z,23.60
2018-03-08T08:56:58.370Z,19.95
2018-03-08T08:59:26.430Z,22.85
2018-03-08T09:01:54.448Z,18.75
2018-03-08T09:04:22.497Z,19.00
2018-03-08T09:06:50.532Z,17.70
2018-03-08T09:09:18.598Z,19.10
2018-03-08T09:11:47.430Z,15.18
2018-03-08T09:14:15.490Z,20.88
2018-03-08T09:16:43.631Z,14.48
2018-03-08T09:19:11.684Z,13.90
2018-03-08T09:21:39.768Z,13.73
2018-03-08T09:24:07.832Z,14.02
2018-03-08T09:26:35.906Z,15.65
2018-03-08T09:29:03.964Z,11.02
2018-03-08T09:31:32.784Z,12.00
2018-03-08T09:34:00.823Z,10.48
2018-03-08T09:36:28.864Z,12.18
2018-03-08T09:38:56.980Z,13.77
2018-03-08T09:41:25.059Z,10.93
2018-03-08T09:43:53.128Z,9.70
2018-03-08T09:46:21.610Z,10.75
2018-03-08T09:48:49.677Z,11.25
2018-03-08T09:51:17.766Z,8.70
2018-03-08T09:53:46.615Z,9.88
2018-03-08T09:56:14.660Z,11.77
2018-03-08T09:58:42.674Z,10.15
2018-03-08T10:01:11.091Z,9.77
2018-03-08T10:03:39.143Z,11.82
2018-03-08T10:06:07.171Z,10.27
2018-03-08T10:08:35.217Z,8.93
2018-03-08T10:11:03.245Z,10.65
2018-03-08T10:13:31.333Z,7.20
2018-03-08T10:15:59.367Z,7.72
2018-03-08T10:18:27.427Z,9.88
2018-03-08T10:20:55.485Z,7.70
2018-03-08T10:23:23.535Z,7.30
2018-03-08T10:25:51.557Z,6.72
2018-03-08T10:28:20.366Z,9.15
2018-03-08T10:30:48.406Z,8.88
2018-03-08T10:33:16.516Z,8.23
2018-03-08T10:35:44.568Z,7.50
2018-03-08T10:38:13.388Z,6.78
2018-03-08T10:43:09.466Z,8.38
2018-03-08T10:45:39.466Z,8.65
2018-03-08T10:48:07.675Z,7.10
2018-03-08T10:50:35.733Z,7.68
2018-03-08T10:53:03.784Z,8.18
2018-03-08T10:55:31.872Z,5.12
2018-03-08T10:57:59.954Z,6.90
2018-03-08T11:00:33.425Z,6.30
2018-03-08T11:03:06.982Z,6.57
2018-03-08T11:05:40.150Z,7.00
2018-03-08T11:08:08.216Z,5.03
2018-03-08T11:10:37.799Z,4.85
2018-03-08T11:13:05.846Z,7.62
2018-03-08T11:15:33.878Z,9.48
2018-03-08T11:18:01.914Z,6.37
2018-03-08T11:20:29.984Z,5.62
2018-03-08T11:22:58.045Z,5.22
2018-03-08T11:25:26.092Z,7.00
2018-03-08T11:27:54.895Z,7.10
2018-03-08T11:30:22.956Z,5.43
2018-03-08T11:32:50.992Z,5.70
2018-03-08T11:35:19.067Z,5.22
2018-03-08T11:37:47.790Z,7.37
2018-03-08T11:40:15.191Z,5.72
2018-03-08T11:42:43.265Z,4.78
2018-03-08T11:45:11.310Z,5.87
2018-03-08T11:47:39.361Z,10.18
2018-03-08T11:50:08.171Z,6.62
2018-03-08T11:52:36.189Z,4.97
2018-03-08T11:55:04.225Z,5.37
2018-03-08T11:57:32.279Z,5.22
2018-03-08T12:00:00.329Z,6.75
2018-03-08T12:02:28.369Z,4.95
2018-03-08T12:04:56.423Z,5.00
2018-03-08T12:07:24.479Z,6.18
2018-03-08T12:09:52.527Z,5.32
2018-03-08T12:12:20.591Z,6.05
2018-03-08T12:14:48.646Z,4.87
2018-03-08T12:17:16.707Z,5.25
2018-03-08T12:19:46.274Z,4.93
2018-03-08T12:22:14.356Z,4.25
2018-03-08T12:24:42.429Z,5.75
2018-03-08T12:27:10.486Z,5.22
2018-03-08T12:29:38.530Z,4.40
2018-03-08T12:32:06.569Z,4.80
2018-03-08T12:34:34.666Z,4.85
2018-03-08T12:37:02.712Z,4.47
2018-03-08T12:39:30.796Z,5.12
2018-03-08T12:41:58.814Z,4.87
2018-03-08T12:44:26.850Z,5.45
2018-03-08T12:46:54.931Z,5.45
2018-03-08T12:49:23.076Z,4.65
2018-03-08T12:51:51.143Z,5.20
2018-03-08T12:54:19.189Z,4.50
2018-03-08T12:56:47.226Z,5.32
2018-03-08T12:59:15.290Z,6.55
2018-03-08T13:01:44.096Z,4.57
2018-03-08T13:04:12.135Z,5.50
2018-03-08T13:06:40.191Z,9.85
2018-03-08T13:09:08.260Z,4.53
2018-03-08T13:11:36.354Z,5.20
2018-03-08T13:14:04.355Z,7.78
2018-03-08T13:16:32.396Z,5.93
2018-03-08T13:19:00.423Z,9.02
2018-03-08T13:21:28.636Z,6.47
2018-03-08T13:24:02.180Z,7.32
2018-03-08T13:26:30.200Z,5.05
2018-03-08T13:28:57.867Z,6.75
2018-03-08T13:31:25.759Z,7.65
2018-03-08T13:33:54.532Z,6.05
2018-03-08T13:36:22.578Z,6.55
2018-03-08T13:38:50.590Z,6.85
2018-03-08T13:41:18.621Z,4.28
2018-03-08T13:43:46.655Z,6.20
2018-03-08T13:46:14.710Z,4.43
2018-03-08T13:48:42.772Z,7.18
2018-03-08T13:51:10.799Z,4.30
2018-03-08T13:53:38.864Z,4.35
2018-03-08T13:56:07.007Z,6.28
2018-03-08T13:58:35.039Z,4.80
2018-03-08T14:01:03.087Z,4.93
2018-03-08T14:03:31.110Z,6.70
2018-03-08T14:05:59.127Z,8.27
2018-03-08T14:08:27.199Z,9.48
2018-03-08T14:10:55.217Z,7.80
2018-03-08T14:13:23.272Z,6.07
2018-03-08T14:15:51.366Z,7.57
2018-03-08T14:18:19.380Z,58.97
2018-03-08T14:20:48.227Z,21.35
2018-03-08T14:23:16.270Z,6.72
2018-03-08T14:25:44.312Z,8.45
2018-03-08T14:28:12.359Z,20.55
2018-03-08T14:30:40.440Z,14.23
2018-03-08T14:33:08.513Z,11.80
2018-03-08T14:35:36.555Z,11.60
2018-03-08T14:38:04.629Z,15.07
2018-03-08T14:40:32.666Z,10.10
2018-03-08T14:43:00.692Z,14.52
2018-03-08T14:45:28.762Z,14.52
2018-03-08T14:47:56.816Z,14.30
2018-03-08T14:50:24.840Z,14.52
2018-03-08T14:52:52.898Z,11.68
2018-03-08T14:55:20.971Z,14.15
2018-03-08T14:57:49.427Z,10.75
2018-03-08T15:00:18.254Z,7.35
2018-03-08T15:02:46.332Z,16.90
2018-03-08T15:05:14.343Z,9.75
2018-03-08T15:07:42.382Z,14.07
2018-03-08T15:10:10.687Z,7.93
2018-03-08T15:12:38.737Z,9.93
2018-03-08T15:15:06.761Z,12.52
2018-03-08T15:17:34.789Z,9.93
2018-03-08T15:20:02.834Z,9.00
2018-03-08T15:22:30.912Z,5.78
2018-03-08T15:24:58.952Z,6.62
2018-03-08T15:27:27.752Z,5.55
2018-03-08T15:29:55.820Z,9.07
2018-03-08T15:32:23.873Z,6.75
2018-03-08T15:34:51.921Z,5.70
2018-03-08T15:37:19.959Z,4.95
2018-03-08T15:39:49.086Z,4.05
2018-03-08T15:42:17.217Z,5.90
2018-03-08T15:44:45.280Z,4.87
2018-03-08T15:47:13.334Z,5.82
2018-03-08T15:49:41.367Z,10.20
2018-03-08T15:52:09.416Z,3.95
2018-03-08T15:54:37.544Z,6.43
2018-03-08T15:57:05.563Z,6.70
2018-03-08T15:59:33.627Z,6.55
2018-03-08T16:02:01.657Z,10.77
2018-03-08T16:04:30.536Z,7.53
2018-03-08T16:06:58.560Z,5.12
2018-03-08T16:09:26.634Z,4.35
2018-03-08T16:11:54.711Z,5.87
2018-03-08T16:14:22.763Z,4.32
2018-03-08T16:16:50.817Z,6.45
2018-03-08T16:19:18.846Z,6.50
2018-03-08T16:21:46.890Z,6.00
2018-03-08T16:24:14.970Z,6.30
2018-03-08T16:26:43.060Z,5.68
2018-03-08T16:29:11.171Z,5.95
2018-03-08T16:31:40.079Z,11.35
2018-03-08T16:34:08.146Z,9.63
2018-03-08T16:36:36.250Z,8.00
2018-03-08T16:39:04.349Z,6.20
2018-03-08T16:41:33.206Z,6.55
2018-03-08T16:44:01.308Z,10.35
2018-03-08T16:46:29.360Z,5.72
2018-03-08T16:48:57.410Z,7.03
2018-03-08T16:51:25.534Z,5.30
2018-03-08T16:53:53.572Z,7.18
2018-03-08T16:56:21.613Z,6.95
2018-03-08T16:58:49.652Z,3.97
2018-03-08T17:01:17.697Z,7.18
2018-03-08T17:03:45.784Z,6.53
2018-03-08T17:06:13.823Z,6.00
2018-03-08T17:08:41.929Z,5.95
2018-03-08T17:11:09.993Z,5.05
2018-03-08T17:13:38.113Z,4.62
2018-03-08T17:16:06.477Z,6.47
2018-03-08T17:18:34.511Z,7.15
2018-03-08T17:21:02.560Z,5.40
2018-03-08T17:23:30.679Z,5.37
2018-03-08T17:25:58.732Z,5.32
2018-03-08T17:28:26.834Z,5.72
2018-03-08T17:30:55.276Z,5.65
2018-03-08T17:33:23.356Z,7.95
2018-03-08T17:35:51.396Z,5.97
2018-03-08T17:38:19.438Z,7.25
2018-03-08T17:40:47.496Z,5.50
2018-03-08T17:43:15.560Z,5.15
2018-03-08T17:45:43.591Z,6.45
2018-03-08T17:48:11.676Z,4.90
2018-03-08T17:50:39.751Z,5.60
2018-03-08T17:53:07.814Z,5.00
2018-03-08T17:55:35.892Z,4.22
2018-03-08T17:58:03.933Z,4.50
2018-03-08T18:00:32.128Z,4.20
2018-03-08T18:03:00.947Z,5.93
2018-03-08T18:05:29.006Z,7.80
2018-03-08T18:07:57.382Z,5.05
2018-03-08T18:10:25.446Z,5.65
2018-03-08T18:12:53.530Z,4.62
2018-03-08T18:15:21.608Z,6.40
2018-03-08T18:17:50.086Z,4.32
2018-03-08T18:20:18.220Z,5.12
2018-03-08T18:22:46.309Z,3.97
2018-03-08T18:25:14.371Z,4.82
2018-03-08T18:27:42.422Z,5.53
2018-03-08T18:30:10.516Z,4.95
2018-03-08T18:32:39.379Z,5.62
2018-03-08T18:35:07.424Z,3.75
2018-03-08T18:37:35.502Z,5.82
2018-03-08T18:40:03.542Z,5.15
2018-03-08T18:42:31.614Z,8.45
2018-03-08T18:44:59.693Z,5.30
2018-03-08T18:47:27.776Z,5.40
2018-03-08T18:49:55.813Z,7.28
2018-03-08T18:52:23.847Z,8.52
2018-03-08T18:54:51.906Z,5.22
2018-03-08T18:57:20.021Z,4.40
2018-03-08T18:59:48.123Z,5.93
2018-03-08T19:02:16.152Z,7.18
2018-03-08T19:04:44.215Z,6.00
2018-03-08T19:07:12.252Z,7.53
2018-03-08T19:09:40.309Z,5.20
2018-03-08T19:12:08.376Z,5.75
2018-03-08T19:14:36.437Z,5.28
2018-03-08T19:17:04.666Z,5.70
2018-03-08T19:19:32.742Z,4.65
2018-03-08T19:22:00.789Z,10.48
2018-03-08T19:24:28.876Z,3.92
2018-03-08T19:26:56.923Z,6.43
2018-03-08T19:29:24.987Z,6.45
2018-03-08T19:31:53.101Z,7.03
2018-03-08T19:34:21.163Z,5.25
2018-03-08T19:36:49.218Z,4.78
2018-03-08T19:39:17.262Z,5.35
2018-03-08T19:41:45.327Z,4.00
2018-03-08T19:44:13.385Z,5.12
2018-03-08T19:46:41.469Z,4.20
2018-03-08T19:49:09.528Z,5.00
2018-03-08T19:51:37.646Z,4.22
2018-03-08T19:54:05.726Z,4.70
2018-03-08T19:56:33.796Z,6.45
2018-03-08T19:59:01.850Z,5.37
2018-03-08T20:01:29.960Z,4.78
2018-03-08T20:03:58.036Z,4.45
2018-03-08T20:06:26.091Z,4.70
2018-03-08T20:08:54.144Z,5.47
2018-03-08T20:11:22.260Z,5.60
2018-03-08T20:13:50.307Z,5.65
2018-03-08T20:16:18.421Z,5.45
2018-03-08T20:18:46.478Z,4.45
2018-03-08T20:21:14.541Z,4.30
2018-03-08T20:23:43.247Z,4.60
2018-03-08T20:26:12.240Z,3.67
2018-03-08T20:28:41.833Z,7.47
2018-03-08T20:31:09.884Z,4.28
2018-03-08T20:33:37.923Z,4.68
2018-03-08T20:36:05.956Z,4.43
2018-03-08T20:38:34.015Z,3.80
2018-03-08T20:41:02.055Z,4.97
2018-03-08T20:43:35.460Z,10.77
2018-03-08T20:46:03.504Z,4.57
2018-03-08T20:48:31.620Z,3.20
2018-03-08T20:50:59.675Z,3.87
2018-03-08T20:53:27.740Z,5.35
2018-03-08T20:55:55.795Z,5.80
2018-03-08T20:58:23.842Z,4.50
2018-03-08T21:00:52.664Z,4.43
2018-03-08T21:03:20.791Z,4.37
2018-03-08T21:05:48.879Z,3.50
2018-03-08T21:08:16.934Z,5.25
2018-03-08T21:10:44.985Z,3.83
2018-03-08T21:13:13.057Z,4.07
2018-03-08T21:15:41.491Z,4.22
2018-03-08T21:18:09.528Z,5.62
2018-03-08T21:20:37.600Z,4.37
2018-03-08T21:23:05.672Z,3.60
2018-03-08T21:25:33.710Z,3.35
2018-03-08T21:28:01.790Z,4.22
2018-03-08T21:30:29.858Z,3.60
2018-03-08T21:32:57.906Z,5.75
2018-03-08T21:35:25.960Z,5.12
2018-03-08T21:37:54.024Z,6.32
2018-03-08T21:40:22.098Z,3.55
2018-03-08T21:42:50.907Z,5.87
2018-03-08T21:45:18.959Z,6.40
2018-03-08T21:47:47.033Z,10.25
2018-03-08T21:50:15.816Z,3.65
2018-03-08T21:52:43.906Z,5.30
2018-03-08T21:55:12.715Z,4.93
2018-03-08T21:57:40.744Z,4.80
2018-03-08T22:00:08.789Z,5.22
2018-03-08T22:02:36.828Z,8.43
2018-03-08T22:05:04.899Z,4.32
2018-03-08T22:07:32.944Z,6.97
2018-03-08T22:10:01.026Z,6.15
2018-03-08T22:12:29.108Z,4.03
2018-03-08T22:14:57.135Z,6.00
2018-03-08T22:17:25.200Z,5.45
2018-03-08T22:19:53.245Z,4.05
2018-03-08T22:22:21.291Z,4.20
2018-03-08T22:24:49.318Z,4.20
2018-03-08T22:27:17.389Z,5.85
2018-03-08T22:29:45.771Z,3.33
2018-03-08T22:32:13.812Z,4.20
2018-03-08T22:34:41.863Z,4.87
2018-03-08T22:37:09.909Z,5.03
2018-03-08T22:39:37.957Z,5.43
2018-03-08T22:42:07.558Z,4.55
2018-03-08T22:44:35.626Z,5.35
2018-03-08T22:47:03.675Z,3.92
2018-03-08T22:49:31.733Z,5.28
2018-03-08T22:51:59.772Z,4.28
2018-03-08T22:54:28.601Z,4.28
2018-03-08T22:56:56.679Z,5.40
2018-03-08T22:59:24.702Z,3.83
2018-03-08T23:01:52.747Z,4.57
2018-03-08T23:04:20.814Z,3.35
2018-03-08T23:06:48.869Z,4.47
2018-03-08T23:09:16.936Z,4.37
2018-03-08T23:11:44.955Z,3.42
2018-03-08T23:14:13.054Z,5.62
2018-03-08T23:16:41.097Z,4.28
2018-03-08T23:19:09.207Z,3.65
2018-03-08T23:21:37.241Z,3.28
2018-03-08T23:24:05.266Z,3.25
2018-03-08T23:26:33.288Z,3.10
2018-03-08T23:29:01.340Z,2.72
2018-03-08T23:31:29.392Z,3.37
2018-03-08T23:33:57.457Z,5.28
2018-03-08T23:36:25.497Z,3.62
2018-03-08T23:38:54.453Z,3.12
2018-03-08T23:41:22.475Z,3.37
2018-03-08T23:43:50.538Z,4.25
2018-03-08T23:46:18.575Z,4.37
2018-03-08T23:48:46.636Z,4.68
2018-03-08T23:51:14.691Z,5.37
2018-03-08T23:53:43.519Z,4.57
2018-03-08T23:56:11.584Z,4.43
2018-03-08T23:58:39.622Z,4.05
